Time;durP1;ratioP1;P1;durP2;ratioP2;P2;SDS_P1;SDS_P2;PMS_P1;PMS_P2;Temp;Humidity;BMP_temperature;BMP_pressure;BME280_temperature;BME280_humidity;BME280_pressure;Samples;Min_cycle;Max_cycle;Signal;HPM_P1;HPM_P2
2021/12/28 00:00:15;;;;;;;15.73;9.18;;;5.50;99.90;;;;;;4995958;28;20060;-71
2021/12/28 00:02:44;;;;;;;16.08;10.02;;;5.70;99.90;;;;;;5009027;28;20045;-71
2021/12/28 00:05:10;;;;;;;13.88;9.05;;;5.60;99.90;;;;;;4979438;28;20481;-71
2021/12/28 00:07:37;;;;;;;17.33;10.52;;;5.60;99.90;;;;;;5011430;28;20049;-71
2021/12/28 00:10:05;;;;;;;16.30;10.18;;;5.40;99.90;;;;;;4977953;28;20124;-72
2021/12/28 00:12:33;;;;;;;13.80;8.18;;;5.50;99.90;;;;;;5011199;28;20048;-71
2021/12/28 00:18:00;;;;;;;21.00;11.90;;;5.50;99.90;;;;;;5002175;28;20053;-71
2021/12/28 00:20:47;;;;;;;13.30;8.73;;;5.60;99.90;;;;;;5007702;28;20160;-71
2021/12/28 00:23:14;;;;;;;17.55;10.68;;;5.50;99.90;;;;;;4989711;28;20394;-71
2021/12/28 00:25:41;;;;;;;15.80;8.57;;;6.20;99.90;;;;;;5013048;28;20041;-71
2021/12/28 00:28:07;;;;;;;18.92;11.55;;;5.50;99.90;;;;;;5018929;28;20121;-71
2021/12/28 00:30:33;;;;;;;17.33;10.93;;;5.80;99.90;;;;;;4993908;28;20045;-71
2021/12/28 00:33:00;;;;;;;18.33;11.48;;;5.70;99.90;;;;;;5008976;28;20397;-72
2021/12/28 00:35:29;;;;;;;19.23;11.82;;;5.60;99.90;;;;;;5007774;28;20137;-72
2021/12/28 00:37:55;;;;;;;14.65;9.75;;;5.80;99.90;;;;;;5012886;28;20037;-72
2021/12/28 00:40:22;;;;;;;15.60;9.90;;;5.90;99.90;;;;;;5011419;28;20383;-72
2021/12/28 00:42:48;;;;;;;17.38;10.20;;;5.70;99.90;;;;;;4976783;28;20082;-72
2021/12/28 00:45:14;;;;;;;15.02;10.23;;;5.80;99.90;;;;;;5011080;28;20049;-71
2021/12/28 00:47:41;;;;;;;18.65;11.18;;;5.70;99.90;;;;;;5007235;28;20052;-73
2021/12/28 00:50:08;;;;;;;18.08;12.75;;;5.80;99.90;;;;;;4995281;28;20057;-72
2021/12/28 00:52:34;;;;;;;15.75;10.63;;;5.90;99.90;;;;;;5009291;28;20041;-73
2021/12/28 00:55:02;;;;;;;14.00;10.15;;;6.00;99.90;;;;;;5026475;28;20404;-72
2021/12/28 00:57:28;;;;;;;23.40;15.27;;;6.10;99.90;;;;;;5008966;28;20045;-72
2021/12/28 00:59:53;;;;;;;17.13;12.82;;;6.30;99.90;;;;;;5012656;28;20363;-72
2021/12/28 01:02:19;;;;;;;16.40;10.00;;;6.30;99.90;;;;;;5008351;28;20073;-72
2021/12/28 01:04:45;;;;;;;15.93;11.13;;;6.10;99.90;;;;;;5009788;28;20037;-72
2021/12/28 01:07:11;;;;;;;16.08;10.77;;;6.10;99.90;;;;;;5009205;28;20095;-73
2021/12/28 01:09:36;;;;;;;17.02;10.80;;;6.60;99.90;;;;;;5011115;28;20108;-73
2021/12/28 01:12:05;;;;;;;16.23;11.52;;;6.50;99.90;;;;;;5010702;28;20041;-73
2021/12/28 01:14:31;;;;;;;16.17;10.95;;;6.30;99.90;;;;;;5025950;28;20042;-71
2021/12/28 01:16:59;;;;;;;16.67;10.93;;;6.30;99.90;;;;;;4992280;28;20392;-72
2021/12/28 01:19:25;;;;;;;16.10;11.38;;;6.60;99.90;;;;;;4993935;28;20048;-72
2021/12/28 01:21:52;;;;;;;17.33;11.82;;;6.20;99.90;;;;;;4993044;28;20037;-72
2021/12/28 01:24:18;;;;;;;16.42;11.90;;;6.40;99.90;;;;;;5026389;28;20055;-73
2021/12/28 01:26:45;;;;;;;17.27;10.93;;;6.90;99.90;;;;;;4992872;28;20044;-72
2021/12/28 01:29:11;;;;;;;18.55;12.30;;;6.60;99.90;;;;;;5008662;28;20045;-72
2021/12/28 01:31:37;;;;;;;19.13;12.73;;;6.60;99.90;;;;;;5010967;28;20064;-71
2021/12/28 01:34:05;;;;;;;20.17;11.93;;;6.50;99.90;;;;;;4992623;28;20041;-72
2021/12/28 01:36:31;;;;;;;19.00;12.43;;;6.70;99.90;;;;;;5011509;28;20037;-73
2021/12/28 01:38:57;;;;;;;21.55;12.57;;;6.60;99.90;;;;;;4996769;28;20474;-71
2021/12/28 01:41:22;;;;;;;22.88;14.82;;;6.60;99.90;;;;;;5013909;28;20476;-71
2021/12/28 01:43:58;;;;;;;18.77;13.00;;;6.80;99.90;;;;;;5011964;28;20141;-73
2021/12/28 01:46:24;;;;;;;19.35;12.55;;;6.80;99.90;;;;;;4994336;28;20578;-72
2021/12/28 01:48:50;;;;;;;24.20;15.20;;;7.00;99.90;;;;;;5013997;28;20042;-72
2021/12/28 01:51:18;;;;;;;25.45;15.38;;;7.10;99.90;;;;;;5014620;28;20037;-72
2021/12/28 01:53:45;;;;;;;26.50;15.02;;;6.60;99.90;;;;;;5013080;28;20595;-73
2021/12/28 01:56:15;;;;;;;19.95;12.98;;;6.90;99.90;;;;;;4996936;28;20060;-74
2021/12/28 01:58:42;;;;;;;22.42;13.48;;;6.90;99.90;;;;;;5011754;28;20041;-72
2021/12/28 02:01:08;;;;;;;24.38;15.73;;;6.80;99.90;;;;;;5014463;28;20052;-72
2021/12/28 02:03:36;;;;;;;28.15;17.40;;;6.80;99.90;;;;;;5010776;28;20067;-71
2021/12/28 02:06:03;;;;;;;23.13;14.35;;;7.10;99.90;;;;;;5013207;28;20037;-72
2021/12/28 02:08:28;;;;;;;25.92;15.85;;;6.60;99.90;;;;;;5012423;28;20033;-72
2021/12/28 02:10:56;;;;;;;22.25;14.80;;;6.70;99.90;;;;;;4981364;28;20517;-72
2021/12/28 02:13:23;;;;;;;23.45;14.05;;;6.80;99.90;;;;;;5011724;28;20045;-71
2021/12/28 02:15:49;;;;;;;19.75;12.15;;;7.00;99.90;;;;;;5011112;28;20037;-71
2021/12/28 02:18:18;;;;;;;26.50;14.93;;;7.10;99.90;;;;;;4976423;28;20463;-71
2021/12/28 02:20:44;;;;;;;23.83;14.38;;;7.20;99.90;;;;;;4998150;28;20072;-70
2021/12/28 02:23:10;;;;;;;29.80;17.48;;;6.80;99.90;;;;;;5013362;28;20061;-71
2021/12/28 02:25:37;;;;;;;21.80;13.93;;;7.20;99.90;;;;;;5029652;28;20045;-72
2021/12/28 02:28:08;;;;;;;18.30;12.05;;;7.20;99.90;;;;;;5012152;28;20433;-71
2021/12/28 02:30:36;;;;;;;20.13;13.30;;;7.20;99.90;;;;;;5012911;28;20382;-71
2021/12/28 02:33:03;;;;;;;27.38;16.10;;;6.70;99.90;;;;;;5011577;28;20121;-71
2021/12/28 02:35:29;;;;;;;33.42;18.63;;;7.20;99.90;;;;;;5014199;28;20044;-71
2021/12/28 02:37:55;;;;;;;30.65;18.27;;;7.20;99.90;;;;;;5012633;28;20637;-71
2021/12/28 02:40:25;;;;;;;25.13;15.07;;;7.00;99.90;;;;;;5012251;28;20057;-71
2021/12/28 02:42:52;;;;;;;34.80;18.02;;;6.80;99.90;;;;;;4994902;28;20076;-71
2021/12/28 02:45:27;;;;;;;29.58;16.40;;;6.80;99.90;;;;;;5012140;28;20045;-72
2021/12/28 02:47:54;;;;;;;29.60;16.55;;;7.10;99.90;;;;;;5009320;28;20092;-71
2021/12/28 02:50:30;;;;;;;32.67;17.73;;;7.30;99.90;;;;;;5012280;28;20029;-72
2021/12/28 02:52:57;;;;;;;28.98;16.33;;;6.90;99.90;;;;;;4995697;28;20049;-71
2021/12/28 02:55:26;;;;;;;31.10;17.60;;;7.40;99.90;;;;;;5010591;28;20041;-72
2021/12/28 02:57:57;;;;;;;36.47;19.30;;;7.40;99.90;;;;;;5011205;28;20037;-72
2021/12/28 03:00:37;;;;;;;28.33;17.10;;;7.00;99.90;;;;;;5010691;28;20042;-71
2021/12/28 03:03:10;;;;;;;49.03;17.55;;;7.40;99.90;;;;;;5010654;28;20041;-71
2021/12/28 03:05:39;;;;;;;29.30;17.15;;;7.50;99.90;;;;;;5011356;28;20448;-70
2021/12/28 03:08:06;;;;;;;32.10;18.83;;;7.50;99.90;;;;;;5011982;28;20037;-72
2021/12/28 03:10:32;;;;;;;29.77;15.70;;;7.50;99.90;;;;;;5013395;28;20033;-71
2021/12/28 03:12:58;;;;;;;49.90;20.35;;;7.30;99.90;;;;;;4995019;28;20497;-72
2021/12/28 03:15:23;;;;;;;29.45;16.98;;;7.10;99.90;;;;;;4996803;28;20121;-71
2021/12/28 03:17:49;;;;;;;35.22;17.23;;;8.10;99.90;;;;;;5014791;28;20045;-71
2021/12/28 03:20:17;;;;;;;43.97;20.77;;;7.10;99.90;;;;;;5011714;28;20503;-72
2021/12/28 03:22:44;;;;;;;30.45;16.60;;;7.50;99.90;;;;;;5009901;28;20045;-71
2021/12/28 03:25:10;;;;;;;29.63;16.80;;;7.20;99.90;;;;;;5010294;28;20046;-72
2021/12/28 03:27:36;;;;;;;33.95;17.90;;;7.30;99.90;;;;;;5009733;28;20144;-72
2021/12/28 03:30:07;;;;;;;34.08;19.38;;;7.50;99.90;;;;;;5005819;28;20124;-71
2021/12/28 03:32:33;;;;;;;29.88;15.32;;;7.30;99.90;;;;;;4991549;28;20049;-72
2021/12/28 03:35:03;;;;;;;34.08;19.58;;;7.30;99.90;;;;;;5009186;28;20041;-73
2021/12/28 03:37:32;;;;;;;32.50;18.85;;;7.40;99.90;;;;;;5009128;28;20045;-72
2021/12/28 03:39:58;;;;;;;37.40;20.48;;;7.50;99.90;;;;;;5017384;28;20068;-73
2021/12/28 03:42:24;;;;;;;40.63;20.00;;;7.20;99.90;;;;;;5020452;28;20160;-72
2021/12/28 03:44:50;;;;;;;29.05;14.95;;;7.70;99.90;;;;;;5011772;28;20108;-71
2021/12/28 03:47:15;;;;;;;43.40;20.23;;;7.60;99.90;;;;;;4979249;28;20041;-72
2021/12/28 03:49:41;;;;;;;31.00;17.52;;;7.10;99.90;;;;;;5009333;28;20167;-70
2021/12/28 03:52:07;;;;;;;46.65;21.45;;;7.10;99.90;;;;;;5010858;28;20109;-71
2021/12/28 03:54:34;;;;;;;35.60;19.67;;;7.60;99.90;;;;;;5008135;28;20041;-71
2021/12/28 03:57:00;;;;;;;47.75;21.95;;;7.20;99.90;;;;;;5008716;28;20041;-72
2021/12/28 03:59:26;;;;;;;35.45;19.48;;;7.20;99.90;;;;;;5003865;28;20041;-70
2021/12/28 04:01:52;;;;;;;39.72;19.92;;;7.20;99.90;;;;;;5011806;28;20452;-71
2021/12/28 04:04:17;;;;;;;49.03;22.33;;;7.30;99.90;;;;;;5011099;28;20045;-72
2021/12/28 04:06:43;;;;;;;43.50;20.75;;;7.50;99.90;;;;;;5009256;28;20064;-70
2021/12/28 04:09:11;;;;;;;49.30;21.40;;;7.40;99.90;;;;;;4995972;28;20477;-71
2021/12/28 04:11:38;;;;;;;38.42;20.67;;;7.40;99.90;;;;;;5008173;28;20613;-72
2021/12/28 04:14:06;;;;;;;41.42;21.38;;;7.70;99.90;;;;;;5010083;28;20063;-71
2021/12/28 04:16:33;;;;;;;40.47;20.67;;;7.70;99.90;;;;;;5009996;28;20048;-72
2021/12/28 04:19:00;;;;;;;38.28;18.20;;;7.50;99.90;;;;;;5009630;28;20045;-72
2021/12/28 04:21:26;;;;;;;34.97;20.13;;;7.90;99.90;;;;;;5014369;28;20041;-71
2021/12/28 04:23:52;;;;;;;45.75;20.88;;;7.80;99.90;;;;;;5011183;28;20056;-72
2021/12/28 04:26:20;;;;;;;37.75;18.85;;;7.20;99.90;;;;;;4994373;28;20695;-71
2021/12/28 04:28:46;;;;;;;39.70;18.88;;;7.80;99.90;;;;;;4990550;28;20120;-73
2021/12/28 04:31:12;;;;;;;40.58;19.27;;;7.20;99.90;;;;;;5011317;28;20199;-71
2021/12/28 04:33:38;;;;;;;39.67;19.98;;;7.50;99.90;;;;;;5011383;28;20044;-73
2021/12/28 04:36:13;;;;;;;41.88;21.08;;;7.10;99.90;;;;;;5010866;28;20037;-70
2021/12/28 04:38:39;;;;;;;;;;;7.40;99.90;;;;;;5019137;28;20076;-72
2021/12/28 04:41:05;;;;;;;36.40;18.80;;;7.70;99.90;;;;;;4991931;28;20391;-72
2021/12/28 04:43:31;;;;;;;28.35;16.38;;;7.70;99.90;;;;;;5010296;28;20060;-72
2021/12/28 04:45:58;;;;;;;35.42;20.27;;;7.60;99.90;;;;;;4995667;28;20049;-73
2021/12/28 04:48:24;;;;;;;41.33;19.33;;;7.80;99.90;;;;;;5010620;28;20064;-71
2021/12/28 04:50:49;;;;;;;42.30;20.00;;;7.30;99.90;;;;;;5008767;28;20131;-73
2021/12/28 04:53:15;;;;;;;42.83;21.10;;;7.30;99.90;;;;;;5009447;28;20037;-71
2021/12/28 04:55:44;;;;;;;60.47;21.27;;;7.40;99.90;;;;;;5003542;28;20041;-72
2021/12/28 04:58:10;;;;;;;45.97;19.95;;;7.80;99.90;;;;;;5010168;28;20056;-71
2021/12/28 05:00:37;;;;;;;55.75;22.58;;;7.80;99.90;;;;;;5021880;28;20046;-70
2021/12/28 05:03:04;;;;;;;41.75;19.83;;;7.90;99.90;;;;;;5023818;28;20057;-72
2021/12/28 05:05:30;;;;;;;48.08;21.40;;;7.80;99.90;;;;;;5013079;28;20064;-71
2021/12/28 05:07:56;;;;;;;60.75;22.58;;;8.00;99.90;;;;;;5012094;28;20390;-72
2021/12/28 05:10:22;;;;;;;60.15;21.15;;;7.40;99.90;;;;;;5001061;28;20045;-72
2021/12/28 05:12:50;;;;;;;86.30;25.48;;;7.60;99.90;;;;;;5029620;28;20033;-72
2021/12/28 05:15:16;;;;;;;66.15;22.95;;;7.40;99.90;;;;;;5015508;28;20091;-72
2021/12/28 05:17:42;;;;;;;46.78;19.08;;;8.00;99.90;;;;;;5011815;28;20103;-72
2021/12/28 05:20:08;;;;;;;49.95;19.60;;;7.40;99.90;;;;;;4971475;28;20092;-72
2021/12/28 05:22:34;;;;;;;42.50;17.20;;;7.40;99.90;;;;;;4994563;28;20484;-72
2021/12/28 05:25:00;;;;;;;45.33;18.33;;;7.60;99.90;;;;;;4999324;28;20037;-72
2021/12/28 05:27:26;;;;;;;43.60;17.90;;;7.60;99.90;;;;;;5012026;28;20421;-72
2021/12/28 05:29:52;;;;;;;40.30;17.60;;;7.80;99.90;;;;;;5014371;28;20366;-73
2021/12/28 05:32:18;;;;;;;80.78;22.35;;;7.40;99.90;;;;;;5010445;28;20041;-72
2021/12/28 05:34:43;;;;;;;47.00;19.75;;;7.70;99.90;;;;;;4980382;28;20037;-72
2021/12/28 05:37:09;;;;;;;38.78;19.20;;;8.10;99.90;;;;;;5007583;28;20104;-71
2021/12/28 05:39:36;;;;;;;53.45;19.25;;;7.40;99.90;;;;;;5013804;28;20188;-72
2021/12/28 05:42:03;;;;;;;42.58;17.88;;;7.40;99.90;;;;;;5011390;28;20124;-71
2021/12/28 05:44:28;;;;;;;40.40;17.73;;;7.70;99.90;;;;;;5011736;28;20593;-71
2021/12/28 05:46:55;;;;;;;40.38;17.52;;;7.80;99.90;;;;;;5010499;28;20048;-72
2021/12/28 05:49:24;;;;;;;31.10;16.33;;;7.40;99.90;;;;;;4997497;28;20045;-73
2021/12/28 05:51:51;;;;;;;55.53;21.98;;;7.90;99.90;;;;;;4996129;28;20549;-73
2021/12/28 05:54:17;;;;;;;47.40;18.38;;;7.90;99.90;;;;;;5004080;28;20045;-73
2021/12/28 05:56:44;;;;;;;35.92;17.17;;;7.80;99.90;;;;;;5002141;28;20032;-73
2021/12/28 05:59:10;;;;;;;32.80;17.67;;;7.80;99.90;;;;;;4997299;28;20045;-73
2021/12/28 06:01:36;;;;;;;25.90;14.35;;;7.10;99.90;;;;;;5010262;28;20087;-73
2021/12/28 06:04:02;;;;;;;38.50;18.10;;;7.20;99.90;;;;;;5011085;28;20041;-73
2021/12/28 06:06:28;;;;;;;39.65;19.73;;;7.30;99.90;;;;;;5008836;28;20049;-73
2021/12/28 06:08:53;;;;;;;29.48;16.52;;;7.80;99.90;;;;;;5011585;28;20385;-73
2021/12/28 06:11:19;;;;;;;36.00;16.80;;;7.90;99.90;;;;;;4996010;28;20045;-73
2021/12/28 06:13:45;;;;;;;32.15;16.85;;;7.60;99.90;;;;;;5012013;28;20033;-73
2021/12/28 06:16:11;;;;;;;31.85;16.65;;;7.30;99.90;;;;;;5012016;28;20038;-73
2021/12/28 06:18:38;;;;;;;31.10;16.75;;;7.40;99.90;;;;;;5010937;28;20029;-72
2021/12/28 06:21:04;;;;;;;33.53;16.88;;;7.40;99.90;;;;;;5015268;28;20555;-73
2021/12/28 06:23:31;;;;;;;30.52;16.27;;;7.50;99.90;;;;;;4992134;28;20033;-73
2021/12/28 06:25:56;;;;;;;41.75;18.00;;;7.70;99.90;;;;;;5011365;28;20068;-72
2021/12/28 06:28:22;;;;;;;32.10;16.65;;;7.50;99.90;;;;;;5006484;28;20180;-72
2021/12/28 06:30:48;;;;;;;31.52;15.75;;;7.70;99.90;;;;;;4995424;28;20052;-73
2021/12/28 06:33:15;;;;;;;29.35;15.25;;;7.40;99.90;;;;;;4969582;28;20038;-73
2021/12/28 06:35:41;;;;;;;32.58;16.63;;;7.50;99.90;;;;;;5011757;28;20041;-72
2021/12/28 06:38:07;;;;;;;28.52;15.48;;;7.50;99.90;;;;;;5008292;28;20045;-72
2021/12/28 06:40:33;;;;;;;34.05;16.63;;;7.70;99.90;;;;;;5011303;28;20095;-72
2021/12/28 06:42:59;;;;;;;21.98;12.43;;;7.30;99.90;;;;;;4996325;28;20112;-70
2021/12/28 06:45:26;;;;;;;28.95;15.25;;;7.00;99.90;;;;;;4961304;28;20053;-71
2021/12/28 06:47:51;;;;;;;25.25;14.63;;;7.10;99.90;;;;;;4973231;28;20071;-72
2021/12/28 06:50:18;;;;;;;35.20;16.70;;;7.70;99.90;;;;;;4991329;28;20038;-72
2021/12/28 06:52:44;;;;;;;29.77;16.02;;;7.30;99.90;;;;;;4994807;28;20030;-72
2021/12/28 06:55:11;;;;;;;27.30;14.43;;;7.20;99.90;;;;;;4993404;28;20152;-73
2021/12/28 06:57:37;;;;;;;36.22;16.27;;;7.20;99.90;;;;;;4992977;28;20125;-72
2021/12/28 07:00:08;;;;;;;29.85;15.02;;;7.70;99.90;;;;;;4985743;28;20502;-71
2021/12/28 07:02:34;;;;;;;32.65;16.77;;;7.10;99.90;;;;;;4994897;28;20065;-72
2021/12/28 07:04:59;;;;;;;26.52;15.48;;;7.10;99.90;;;;;;4990400;28;20054;-71
2021/12/28 07:07:25;;;;;;;32.53;15.27;;;7.30;99.90;;;;;;4975326;28;20052;-72
2021/12/28 07:09:51;;;;;;;28.73;14.68;;;7.00;99.90;;;;;;4995217;28;20046;-72
2021/12/28 07:12:17;;;;;;;27.25;13.43;;;7.20;99.90;;;;;;4979921;28;20049;-74
2021/12/28 07:14:42;;;;;;;30.23;15.35;;;7.20;99.90;;;;;;4979572;28;20041;-72
2021/12/28 07:17:08;;;;;;;33.55;17.05;;;7.30;99.90;;;;;;4995447;28;20097;-72
2021/12/28 07:19:34;;;;;;;31.45;15.48;;;7.10;99.90;;;;;;4994078;28;20052;-71
2021/12/28 07:22:00;;;;;;;30.05;15.48;;;7.70;99.90;;;;;;4993146;28;20048;-71
2021/12/28 07:24:26;;;;;;;31.67;15.32;;;7.00;99.90;;;;;;4978294;28;20104;-71
2021/12/28 07:26:52;;;;;;;31.42;14.55;;;7.60;99.90;;;;;;4977350;28;20046;-71
2021/12/28 07:29:18;;;;;;;37.47;18.02;;;7.50;99.90;;;;;;4991799;28;20125;-71
2021/12/28 07:31:43;;;;;;;24.05;12.35;;;6.90;99.90;;;;;;4994583;28;20120;-71
2021/12/28 07:34:09;;;;;;;33.60;15.40;;;7.40;99.90;;;;;;4994032;28;20069;-72
2021/12/28 07:36:35;;;;;;;28.88;15.93;;;7.70;99.90;;;;;;4975087;28;20033;-72
2021/12/28 07:39:02;;;;;;;30.52;13.77;;;7.70;99.90;;;;;;4981920;28;20058;-71
2021/12/28 07:41:27;;;;;;;28.98;14.68;;;7.50;99.90;;;;;;4991709;28;20042;-72
2021/12/28 07:43:53;;;;;;;29.63;14.45;;;7.20;99.90;;;;;;4982832;28;20110;-71
2021/12/28 07:46:19;;;;;;;25.60;14.23;;;7.20;99.90;;;;;;5010860;28;20378;-72
2021/12/28 07:48:44;;;;;;;24.98;14.13;;;7.80;99.90;;;;;;5012106;28;20041;-72
2021/12/28 07:51:10;;;;;;;19.63;10.95;;;7.20;99.90;;;;;;5013321;28;20088;-71
2021/12/28 07:53:36;;;;;;;22.23;12.05;;;7.50;99.90;;;;;;5007106;28;20037;-72
2021/12/28 07:56:03;;;;;;;27.17;14.43;;;7.20;99.90;;;;;;4984500;28;20051;-73
2021/12/28 07:58:29;;;;;;;22.58;11.90;;;7.70;99.90;;;;;;5022886;28;20041;-73
2021/12/28 08:00:55;;;;;;;23.75;11.57;;;7.50;99.90;;;;;;5012600;28;20041;-73
2021/12/28 08:03:22;;;;;;;20.95;11.75;;;8.00;99.90;;;;;;5010653;28;20069;-72
2021/12/28 08:05:49;;;;;;;24.17;11.00;;;8.00;99.90;;;;;;5028561;28;20071;-71
2021/12/28 08:08:15;;;;;;;22.05;11.45;;;7.20;99.90;;;;;;5011776;28;20103;-72
2021/12/28 08:10:41;;;;;;;21.35;12.75;;;7.70;99.90;;;;;;5010665;28;20034;-72
2021/12/28 08:13:07;;;;;;;17.20;10.55;;;8.10;99.90;;;;;;4997665;28;20048;-72
2021/12/28 08:15:33;;;;;;;19.73;11.48;;;8.00;99.90;;;;;;5010376;28;20033;-73
2021/12/28 08:18:00;;;;;;;19.00;10.48;;;7.20;99.90;;;;;;4994627;28;20086;-70
2021/12/28 08:20:26;;;;;;;20.75;11.95;;;7.30;99.90;;;;;;5010191;28;20048;-73
2021/12/28 08:22:51;;;;;;;15.63;8.93;;;7.30;99.90;;;;;;4987780;28;20389;-71
2021/12/28 08:25:19;;;;;;;16.38;10.18;;;7.60;99.90;;;;;;4977437;28;20052;-73
2021/12/28 08:27:46;;;;;;;19.00;10.07;;;7.30;99.90;;;;;;5011254;28;20040;-72
2021/12/28 08:30:13;;;;;;;18.40;9.07;;;7.50;99.90;;;;;;5009183;28;20385;-73
2021/12/28 08:32:39;;;;;;;15.27;9.18;;;7.70;99.90;;;;;;5005432;28;20041;-74
2021/12/28 08:35:06;;;;;;;18.33;8.75;;;8.40;99.90;;;;;;5009771;28;20124;-71
2021/12/28 08:37:32;;;;;;;13.77;8.50;;;7.60;99.90;;;;;;5010480;28;20048;-72
2021/12/28 08:39:59;;;;;;;17.30;9.73;;;7.60;99.90;;;;;;5010527;28;20393;-72
2021/12/28 08:42:25;;;;;;;15.95;8.57;;;7.70;99.90;;;;;;5009444;28;20048;-71
2021/12/28 08:44:51;;;;;;;17.98;8.95;;;8.10;99.90;;;;;;5005263;28;20351;-71
2021/12/28 08:47:18;;;;;;;14.50;7.55;;;7.80;99.90;;;;;;4973027;28;20053;-70
2021/12/28 08:49:43;;;;;;;13.05;7.32;;;8.20;99.90;;;;;;5001155;28;20029;-72
2021/12/28 08:52:09;;;;;;;14.27;7.53;;;8.30;99.90;;;;;;4994209;28;20060;-73
2021/12/28 08:54:35;;;;;;;12.15;7.57;;;7.60;99.90;;;;;;5027938;28;20041;-72
2021/12/28 08:57:03;;;;;;;19.55;8.23;;;8.20;99.90;;;;;;5006381;28;20041;-75
2021/12/28 08:59:35;;;;;;;19.35;8.52;;;7.70;99.90;;;;;;5002959;28;20041;-74
2021/12/28 09:02:01;;;;;;;15.57;7.43;;;8.20;99.90;;;;;;5003934;28;20183;-74
2021/12/28 09:04:26;;;;;;;12.88;6.80;;;7.80;99.90;;;;;;5005230;28;20128;-74
2021/12/28 09:06:52;;;;;;;16.40;8.13;;;8.40;99.90;;;;;;5004905;28;20042;-75
2021/12/28 09:09:18;;;;;;;11.95;6.55;;;8.30;99.90;;;;;;5004497;28;20042;-72
2021/12/28 09:11:46;;;;;;;11.93;7.10;;;7.90;99.90;;;;;;4987862;28;20041;-74
2021/12/28 09:14:12;;;;;;;11.55;6.07;;;8.10;99.90;;;;;;5004754;28;20099;-72
2021/12/28 09:16:38;;;;;;;8.23;5.03;;;8.40;99.90;;;;;;4987859;28;20053;-71
2021/12/28 09:19:04;;;;;;;12.38;6.35;;;8.40;99.90;;;;;;5004661;28;20512;-72
2021/12/28 09:21:30;;;;;;;15.45;7.82;;;8.20;99.90;;;;;;5004384;28;20801;-72
2021/12/28 09:23:55;;;;;;;13.45;6.15;;;8.50;99.90;;;;;;5004408;28;20139;-72
2021/12/28 09:26:21;;;;;;;16.70;8.07;;;8.10;99.90;;;;;;5004378;28;20448;-71
2021/12/28 09:28:47;;;;;;;15.70;6.47;;;8.30;99.90;;;;;;5020892;28;20081;-72
2021/12/28 09:31:12;;;;;;;12.73;5.85;;;8.40;99.90;;;;;;4988398;28;20038;-71
2021/12/28 09:33:38;;;;;;;17.42;7.07;;;8.50;99.90;;;;;;5003788;28;20037;-73
2021/12/28 09:36:07;;;;;;;16.15;7.45;;;8.70;99.90;;;;;;5003993;28;20132;-73
2021/12/28 09:38:33;;;;;;;25.45;5.75;;;8.60;99.90;;;;;;4988152;28;20045;-71
2021/12/28 09:40:59;;;;;;;11.52;5.53;;;8.50;99.90;;;;;;4987941;28;20041;-72
2021/12/28 09:43:26;;;;;;;14.00;6.32;;;8.50;99.90;;;;;;5004026;28;20095;-71
2021/12/28 09:45:52;;;;;;;17.83;7.30;;;8.40;99.90;;;;;;5002998;28;20524;-71
2021/12/28 09:48:18;;;;;;;9.68;4.70;;;8.50;99.90;;;;;;5004172;28;20057;-73
2021/12/28 09:50:43;;;;;;;15.05;6.20;;;8.20;99.90;;;;;;5004216;28;20821;-74
2021/12/28 09:53:11;;;;;;;12.88;5.50;;;8.20;99.90;;;;;;5004633;28;20057;-73
2021/12/28 09:55:37;;;;;;;12.38;5.45;;;8.20;99.90;;;;;;5004110;28;20076;-73
2021/12/28 09:58:03;;;;;;;11.70;4.47;;;8.40;99.90;;;;;;5007575;28;20073;-73
2021/12/28 10:00:29;;;;;;;15.23;6.00;;;8.40;99.90;;;;;;5007401;28;20056;-73
2021/12/28 10:02:55;;;;;;;13.15;5.63;;;8.20;99.90;;;;;;5007509;28;20053;-74
2021/12/28 10:05:24;;;;;;;12.25;6.68;;;8.30;99.90;;;;;;5007505;28;20045;-73
2021/12/28 10:07:57;;;;;;;12.85;6.05;;;8.50;99.90;;;;;;5007263;28;20041;-73
2021/12/28 10:10:25;;;;;;;15.35;6.15;;;8.50;99.90;;;;;;5007205;28;20515;-72
2021/12/28 10:12:54;;;;;;;12.25;5.10;;;8.50;99.90;;;;;;5007162;28;20057;-72
2021/12/28 10:15:25;;;;;;;15.18;6.93;;;8.50;99.90;;;;;;5007206;28;20808;-73
2021/12/28 10:17:54;;;;;;;12.05;5.10;;;8.20;99.90;;;;;;4990649;28;20041;-72
2021/12/28 10:20:28;;;;;;;14.30;6.53;;;8.40;99.90;;;;;;4990451;28;20041;-72
2021/12/28 10:22:58;;;;;;;16.20;6.25;;;8.20;99.90;;;;;;4990490;28;20049;-73
2021/12/28 10:25:28;;;;;;;19.13;6.43;;;8.30;99.90;;;;;;5006484;28;20120;-72
2021/12/28 10:28:01;;;;;;;15.90;6.00;;;8.30;99.90;;;;;;5006418;28;20045;-73
2021/12/28 10:30:29;;;;;;;14.13;4.38;;;8.50;99.90;;;;;;5006898;28;20070;-70
2021/12/28 10:32:58;;;;;;;10.73;5.18;;;8.30;99.90;;;;;;4990060;28;20545;-73
2021/12/28 10:35:33;;;;;;;8.43;4.05;;;8.70;99.90;;;;;;5006465;28;20096;-72
2021/12/28 10:38:07;;;;;;;13.88;5.85;;;8.70;99.90;;;;;;5006970;28;20114;-72
2021/12/28 10:40:36;;;;;;;18.38;6.07;;;8.40;99.90;;;;;;4990666;28;20140;-71
2021/12/28 10:43:07;;;;;;;14.18;6.93;;;8.70;99.90;;;;;;5007431;28;20064;-72
2021/12/28 10:46:01;;;;;;;8.50;4.20;;;8.50;99.90;;;;;;5006331;28;20133;-73
2021/12/28 10:48:37;;;;;;;11.82;4.60;;;8.70;99.90;;;;;;5001389;28;20577;-72
2021/12/28 10:51:08;;;;;;;14.00;4.72;;;8.80;99.90;;;;;;4976264;28;20119;-73
2021/12/28 10:53:54;;;;;;;14.35;5.40;;;8.80;99.90;;;;;;5026346;28;20072;-71
2021/12/28 10:56:19;;;;;;;12.45;5.28;;;8.60;99.90;;;;;;5026300;28;20760;-71
2021/12/28 10:58:47;;;;;;;9.63;4.65;;;8.60;99.90;;;;;;5009289;28;20052;-73
2021/12/28 11:01:26;;;;;;;11.35;4.25;;;8.80;99.90;;;;;;5026323;28;20075;-73
2021/12/28 11:03:57;;;;;;;13.45;6.22;;;8.60;99.90;;;;;;5025975;28;20520;-73
2021/12/28 11:06:29;;;;;;;14.75;5.07;;;8.60;99.90;;;;;;5025474;28;20152;-73
2021/12/28 11:08:57;;;;;;;12.75;5.32;;;8.90;99.90;;;;;;5024120;28;20114;-72
2021/12/28 11:11:24;;;;;;;10.13;4.47;;;8.80;99.90;;;;;;5025639;28;20033;-72
2021/12/28 11:13:59;;;;;;;9.57;4.13;;;8.60;99.90;;;;;;5025770;28;20029;-74
2021/12/28 11:16:26;;;;;;;11.35;4.40;;;8.80;99.90;;;;;;5009260;28;20045;-73
2021/12/28 11:18:58;;;;;;;13.32;5.90;;;8.90;99.90;;;;;;5008800;28;20040;-71
2021/12/28 11:21:31;;;;;;;8.55;4.53;;;8.90;99.90;;;;;;5025243;28;20052;-72
2021/12/28 11:24:13;;;;;;;12.43;4.68;;;8.60;99.90;;;;;;5025581;28;20043;-71
2021/12/28 11:26:42;;;;;;;13.50;5.88;;;9.10;99.90;;;;;;5025528;28;20056;-73
2021/12/28 11:29:20;;;;;;;13.23;6.15;;;9.10;99.90;;;;;;5025140;28;20564;-72
2021/12/28 11:31:52;;;;;;;11.95;5.82;;;8.70;99.90;;;;;;5025181;28;20076;-73
2021/12/28 11:34:33;;;;;;;12.27;5.68;;;8.80;99.90;;;;;;5024976;28;20575;-72
2021/12/28 11:37:08;;;;;;;9.38;5.50;;;8.80;99.90;;;;;;5024616;28;20405;-74
2021/12/28 11:39:36;;;;;;;;;;;9.00;99.90;;;;;;5025193;28;20657;-74
2021/12/28 11:42:03;;;;;;;10.52;5.28;;;8.80;99.90;;;;;;5008190;28;19962;-74
2021/12/28 11:44:29;;;;;;;14.23;6.65;;;9.40;99.90;;;;;;5021025;28;20053;-73
2021/12/28 11:46:57;;;;;;;9.77;4.85;;;9.30;99.90;;;;;;5005036;28;20100;-71
2021/12/28 11:49:27;;;;;;;7.20;4.72;;;9.30;99.90;;;;;;5005024;28;20250;-72
2021/12/28 11:51:54;;;;;;;14.00;7.07;;;9.50;99.90;;;;;;4995272;28;20536;-71
2021/12/28 11:54:24;;;;;;;11.50;5.82;;;9.00;99.90;;;;;;4969853;28;20141;-71
2021/12/28 11:56:57;;;;;;;18.83;9.48;;;9.50;99.90;;;;;;4984928;28;20073;-73
2021/12/28 11:59:26;;;;;;;14.48;7.93;;;9.50;99.90;;;;;;4985384;28;20205;-72
2021/12/28 12:01:51;;;;;;;14.80;6.72;;;9.50;99.90;;;;;;4985636;28;20137;-71
2021/12/28 12:04:35;;;;;;;9.73;5.82;;;9.60;99.90;;;;;;4985731;28;20219;-74
2021/12/28 12:07:23;;;;;;;11.63;6.88;;;9.20;99.90;;;;;;4985281;28;20045;-72
2021/12/28 12:09:52;;;;;;;13.15;6.53;;;9.30;99.90;;;;;;4985716;28;20046;-72
2021/12/28 12:12:27;;;;;;;10.55;5.90;;;9.20;99.90;;;;;;4985305;28;20061;-70
2021/12/28 12:14:58;;;;;;;;;;;9.40;99.90;;;;;;4985869;28;20046;-71
2021/12/28 12:17:24;;;;;;;13.40;7.35;;;9.10;99.90;;;;;;4984802;28;19928;-73
2021/12/28 12:19:50;;;;;;;16.90;7.63;;;9.70;99.90;;;;;;4985083;28;20045;-72
2021/12/28 12:22:39;;;;;;;11.70;6.82;;;9.30;99.90;;;;;;4968979;28;20045;-72
2021/12/28 12:25:05;;;;;;;10.15;5.18;;;9.20;99.90;;;;;;4985440;28;20046;-72
2021/12/28 12:27:51;;;;;;;17.73;7.70;;;9.20;99.90;;;;;;4984860;28;20056;-72
2021/12/28 12:30:17;;;;;;;15.00;6.60;;;9.30;99.90;;;;;;4985233;28;20625;-73
2021/12/28 12:32:58;;;;;;;10.65;5.20;;;9.70;99.90;;;;;;4985056;28;20072;-72
2021/12/28 12:35:35;;;;;;;14.15;6.90;;;9.50;99.90;;;;;;4984799;28;20045;-75
2021/12/28 12:38:27;;;;;;;9.98;5.72;;;9.60;99.90;;;;;;4984605;28;20045;-73
2021/12/28 12:41:07;;;;;;;13.85;8.18;;;9.60;99.90;;;;;;4984516;28;20133;-72
2021/12/28 12:43:38;;;;;;;13.82;7.22;;;9.90;99.90;;;;;;4984561;28;21127;-73
2021/12/28 12:46:09;;;;;;;12.07;6.65;;;9.80;99.90;;;;;;5001487;28;20049;-72